Time;durP1;ratioP1;P1;durP2;ratioP2;P2;SDS_P1;SDS_P2;PMS_P1;PMS_P2;Temp;Humidity;BMP_temperature;BMP_pressure;BME280_temperature;BME280_humidity;BME280_pressure;Samples;Min_cycle;Max_cycle;Signal;HPM_P1;HPM_P2
2021/11/06 00:00:39;;;;;;;5.18;1.38;;;7.70;95.30;;;;;;5091004;28;20047;-77
2021/11/06 00:03:06;;;;;;;4.57;1.40;;;7.70;95.30;;;;;;5089669;28;20028;-77
2021/11/06 00:05:35;;;;;;;5.20;2.17;;;7.60;95.40;;;;;;5090557;28;20032;-77
2021/11/06 00:08:01;;;;;;;5.45;1.85;;;7.60;95.60;;;;;;5093133;28;20038;-78
2021/11/06 00:10:26;;;;;;;;;;;7.60;95.70;;;;;;5093434;28;20036;-77
2021/11/06 00:12:52;;;;;;;1.80;0.65;;;7.60;95.50;;;;;;5089234;28;20422;-77
2021/11/06 00:15:18;;;;;;;;;;;7.60;95.60;;;;;;5092413;28;20463;-77
2021/11/06 00:17:44;;;;;;;3.78;1.35;;;7.60;95.70;;;;;;5089975;28;19907;-77
2021/11/06 00:20:10;;;;;;;;;;;7.50;95.90;;;;;;5092107;28;20514;-77
2021/11/06 00:22:36;;;;;;;2.88;1.17;;;7.40;96.30;;;;;;5092141;28;19904;-76
2021/11/06 00:25:03;;;;;;;;;;;7.30;97.10;;;;;;5090665;28;20032;-75
2021/11/06 00:27:28;;;;;;;4.68;1.75;;;7.20;97.20;;;;;;5090571;28;20402;-78
2021/11/06 00:29:54;;;;;;;6.03;2.20;;;7.20;97.50;;;;;;5092161;28;20036;-77
2021/11/06 00:32:20;;;;;;;;;;;7.10;98.30;;;;;;5092846;28;20085;-76
2021/11/06 00:34:45;;;;;;;4.75;1.50;;;7.00;98.60;;;;;;5090165;28;20291;-77
2021/11/06 00:37:11;;;;;;;5.85;2.30;;;7.00;98.60;;;;;;5093065;28;20044;-76
2021/11/06 00:39:37;;;;;;;6.68;2.08;;;7.00;98.10;;;;;;5091298;28;20074;-77
2021/11/06 00:42:03;;;;;;;;;;;7.10;98.40;;;;;;5090601;28;20031;-76
2021/11/06 00:44:28;;;;;;;9.05;3.17;;;7.00;98.30;;;;;;5091319;28;19934;-77
2021/11/06 00:46:54;;;;;;;;;;;6.90;98.90;;;;;;5092203;28;20036;-76
2021/11/06 00:49:20;;;;;;;7.63;2.40;;;6.80;98.90;;;;;;5090436;28;20035;-77
2021/11/06 00:51:45;;;;;;;;;;;6.70;99.30;;;;;;5091654;28;20067;-77
2021/11/06 00:54:11;;;;;;;11.85;4.00;;;6.60;99.90;;;;;;5125278;27;19923;-77
2021/11/06 00:56:37;;;;;;;;;;;6.50;99.90;;;;;;5091239;28;20020;-76
2021/11/06 00:59:02;;;;;;;9.05;3.42;;;6.30;99.90;;;;;;5091052;28;19904;-76
2021/11/06 01:01:28;;;;;;;8.13;3.17;;;6.20;99.90;;;;;;5091015;28;20023;-76
2021/11/06 01:03:54;;;;;;;;;;;6.00;99.90;;;;;;5092352;28;20041;-77
2021/11/06 01:06:20;;;;;;;2.58;1.17;;;5.90;99.90;;;;;;5125100;27;20272;-76
2021/11/06 01:08:45;;;;;;;;;;;5.80;99.90;;;;;;5092683;28;20499;-76
2021/11/06 01:11:11;;;;;;;1.85;0.93;;;5.70;99.90;;;;;;5091209;28;20307;-76
2021/11/06 01:13:37;;;;;;;;;;;5.60;99.90;;;;;;5089960;28;20462;-77
2021/11/06 01:16:03;;;;;;;2.88;1.20;;;5.50;99.90;;;;;;5089186;28;19912;-76
2021/11/06 01:18:28;;;;;;;;;;;5.30;99.90;;;;;;5069992;28;20035;-77
2021/11/06 01:20:54;;;;;;;3.80;1.70;;;5.20;99.90;;;;;;5120071;27;19930;-77
2021/11/06 01:23:20;;;;;;;3.35;1.52;;;5.10;99.90;;;;;;5086093;28;20027;-76
2021/11/06 01:25:46;;;;;;;4.20;1.55;;;5.10;99.90;;;;;;5086086;28;20062;-76
2021/11/06 01:28:11;;;;;;;;;;;5.00;99.90;;;;;;5085981;28;20543;-77
2021/11/06 01:30:37;;;;;;;3.75;1.38;;;5.00;99.90;;;;;;5085791;28;19951;-76
2021/11/06 01:33:03;;;;;;;;;;;4.90;99.90;;;;;;5086428;28;20055;-77
2021/11/06 01:35:29;;;;;;;7.80;1.35;;;4.80;99.90;;;;;;5087279;28;19937;-76
2021/11/06 01:37:54;;;;;;;;;;;4.80;99.90;;;;;;5087762;28;20032;-75
2021/11/06 01:40:21;;;;;;;2.33;0.90;;;4.80;99.90;;;;;;5087123;28;19975;-77
2021/11/06 01:42:47;;;;;;;4.97;0.90;;;4.80;99.90;;;;;;5086774;28;20560;-76
2021/11/06 01:45:14;;;;;;;;;;;4.90;99.90;;;;;;5087286;28;20024;-77
2021/11/06 01:47:39;;;;;;;;;;;4.80;99.90;;;;;;5087713;28;19908;-76
2021/11/06 01:50:06;;;;;;;2.97;1.08;;;4.80;99.90;;;;;;5086898;28;20315;-77
2021/11/06 01:52:32;;;;;;;3.45;1.27;;;4.80;99.90;;;;;;5085701;28;20096;-77
2021/11/06 01:54:57;;;;;;;;;;;4.80;99.90;;;;;;5087289;28;20487;-76
2021/11/06 01:57:24;;;;;;;4.47;1.52;;;5.00;99.90;;;;;;5086250;28;19908;-76
2021/11/06 01:59:51;;;;;;;3.65;1.70;;;5.00;99.90;;;;;;5085783;28;20077;-77
2021/11/06 02:02:17;;;;;;;3.92;1.48;;;5.00;99.90;;;;;;5085221;28;20330;-77
2021/11/06 02:04:43;;;;;;;7.55;1.58;;;5.10;99.90;;;;;;5085370;28;20023;-77
2021/11/06 02:07:08;;;;;;;;;;;5.10;99.90;;;;;;5085580;28;20036;-76
2021/11/06 02:09:34;;;;;;;3.55;1.70;;;5.10;99.90;;;;;;5086952;28;20366;-76
2021/11/06 02:12:00;;;;;;;;;;;5.10;99.90;;;;;;5085152;28;20513;-76
2021/11/06 02:14:25;;;;;;;4.60;2.00;;;5.20;99.90;;;;;;5118775;27;19955;-77
2021/11/06 02:16:52;;;;;;;;;;;5.20;99.90;;;;;;5086582;28;20119;-77
2021/11/06 02:19:24;;;;;;;7.00;2.22;;;5.20;99.90;;;;;;5085496;28;20115;-75
2021/11/06 02:21:51;;;;;;;6.38;1.92;;;5.10;99.90;;;;;;5086793;28;20039;-77
2021/11/06 02:24:17;;;;;;;5.88;2.13;;;5.00;99.90;;;;;;5085198;28;20020;-76
2021/11/06 02:26:43;;;;;;;;;;;5.00;99.90;;;;;;5086644;28;20480;-77
2021/11/06 02:29:08;;;;;;;6.32;1.92;;;5.00;99.90;;;;;;5085338;28;19908;-77
2021/11/06 02:31:35;;;;;;;4.32;2.42;;;5.00;99.90;;;;;;5086241;28;20035;-77
2021/11/06 02:34:00;;;;;;;4.43;2.20;;;5.00;99.90;;;;;;5085458;28;20043;-77
2021/11/06 02:36:26;;;;;;;;;;;4.90;99.90;;;;;;5085864;28;20031;-77
2021/11/06 02:38:51;;;;;;;4.88;1.75;;;4.90;99.90;;;;;;5088002;28;19934;-77
2021/11/06 02:41:17;;;;;;;;;;;4.80;99.90;;;;;;5085402;28;20488;-78
2021/11/06 02:43:43;;;;;;;15.82;5.10;;;4.80;99.90;;;;;;5085107;28;20354;-78
2021/11/06 02:46:09;;;;;;;7.50;2.67;;;4.60;99.90;;;;;;5084963;28;20028;-77
2021/11/06 02:48:34;;;;;;;;;;;4.70;99.90;;;;;;5086941;28;20058;-77
2021/11/06 02:51:00;;;;;;;7.57;1.92;;;4.60;99.90;;;;;;5085607;28;19908;-76
2021/11/06 02:53:26;;;;;;;;;;;4.60;99.90;;;;;;5087156;28;20036;-76
2021/11/06 02:55:51;;;;;;;12.38;4.70;;;4.40;99.90;;;;;;5084836;28;19919;-77
2021/11/06 02:58:17;;;;;;;;;;;4.50;99.90;;;;;;5085534;28;20025;-77
2021/11/06 03:00:44;;;;;;;4.43;1.30;;;4.30;99.90;;;;;;5085591;28;19916;-77
2021/11/06 03:03:10;;;;;;;3.40;1.10;;;4.30;99.90;;;;;;5085946;28;20028;-77
2021/11/06 03:05:35;;;;;;;;;;;4.40;99.90;;;;;;5086077;28;20084;-77
2021/11/06 03:08:01;;;;;;;3.97;1.52;;;4.40;99.90;;;;;;5085956;28;19912;-77
2021/11/06 03:10:27;;;;;;;;;;;4.50;99.90;;;;;;5086118;28;20028;-77
2021/11/06 03:12:53;;;;;;;3.67;1.40;;;4.50;99.90;;;;;;5087649;28;19920;-77
2021/11/06 03:15:19;;;;;;;3.65;1.48;;;4.70;99.90;;;;;;5086367;28;20069;-77
2021/11/06 03:17:45;;;;;;;5.78;2.22;;;4.50;99.90;;;;;;5086488;28;20031;-78
2021/11/06 03:20:12;;;;;;;;;;;4.40;99.90;;;;;;5086538;28;20028;-77
2021/11/06 03:22:38;;;;;;;5.22;2.22;;;4.40;99.90;;;;;;5087392;28;19914;-76
2021/11/06 03:25:05;;;;;;;;;;;4.40;99.90;;;;;;5086889;28;20126;-76
2021/11/06 03:27:31;;;;;;;;;;;4.20;99.90;;;;;;5088458;28;20552;-77
2021/11/06 03:29:57;;;;;;;9.13;3.75;;;4.20;99.90;;;;;;5087495;28;19998;-76
2021/11/06 03:32:22;;;;;;;;;;;4.10;99.90;;;;;;5088851;28;20488;-77
2021/11/06 03:34:48;;;;;;;8.70;4.13;;;4.10;99.90;;;;;;5087353;28;19935;-76
2021/11/06 03:37:14;;;;;;;9.93;3.80;;;4.10;99.90;;;;;;5089858;28;20028;-77
2021/11/06 03:39:40;;;;;;;;;;;4.00;99.90;;;;;;5092313;28;20023;-76
2021/11/06 03:42:06;;;;;;;9.15;3.50;;;4.00;99.90;;;;;;5092786;28;19904;-76
2021/11/06 03:44:33;;;;;;;7.80;3.10;;;3.90;99.90;;;;;;5094075;28;20058;-77
2021/11/06 03:46:59;;;;;;;6.25;2.60;;;4.10;99.90;;;;;;5093010;28;20032;-77
2021/11/06 03:49:25;;;;;;;10.52;3.72;;;3.90;99.90;;;;;;5089498;28;20439;-77
2021/11/06 03:51:50;;;;;;;;;;;3.80;99.90;;;;;;5090324;28;20055;-77
2021/11/06 03:54:16;;;;;;;7.43;2.90;;;3.80;99.90;;;;;;5087810;28;20338;-76
2021/11/06 03:56:42;;;;;;;7.65;3.58;;;3.80;99.90;;;;;;5087295;28;20020;-76
2021/11/06 03:59:08;;;;;;;9.77;4.05;;;3.70;99.90;;;;;;5087905;28;20064;-77
2021/11/06 04:01:34;;;;;;;10.02;4.88;;;3.70;99.90;;;;;;5090035;28;20024;-77
2021/11/06 04:04:00;;;;;;;;;;;3.50;99.90;;;;;;5088385;28;20085;-77
2021/11/06 04:06:26;;;;;;;11.98;6.22;;;3.60;99.90;;;;;;5089147;28;20394;-76
2021/11/06 04:08:54;;;;;;;;;;;3.60;99.90;;;;;;5088161;28;20454;-77
2021/11/06 04:11:19;;;;;;;21.65;11.23;;;3.50;99.90;;;;;;5089285;28;19903;-76
2021/11/06 04:13:45;;;;;;;;;;;3.50;99.90;;;;;;5090925;28;20116;-77
2021/11/06 04:16:10;;;;;;;14.25;5.53;;;3.50;99.90;;;;;;5088761;28;19959;-77
2021/11/06 04:18:36;;;;;;;;;;;3.40;99.90;;;;;;5089749;28;20584;-77
2021/11/06 04:21:02;;;;;;;4.90;1.55;;;3.40;99.90;;;;;;5088838;28;20023;-78
2021/11/06 04:23:27;;;;;;;;;;;3.50;99.90;;;;;;5092288;28;20077;-76
2021/11/06 04:25:54;;;;;;;7.03;2.08;;;3.60;99.90;;;;;;5088165;28;19916;-77
2021/11/06 04:28:19;;;;;;;;;;;3.70;99.90;;;;;;5089337;28;20028;-77
2021/11/06 04:30:45;;;;;;;5.63;2.47;;;3.80;99.90;;;;;;5088637;28;20280;-77
2021/11/06 04:33:11;;;;;;;10.90;4.13;;;3.80;99.90;;;;;;5088406;28;20318;-77
2021/11/06 04:35:36;;;;;;;;;;;3.80;99.90;;;;;;5088834;28;20028;-77
2021/11/06 04:38:02;;;;;;;6.25;2.00;;;3.80;99.90;;;;;;5088401;28;19947;-77
2021/11/06 04:40:28;;;;;;;;;;;3.80;99.90;;;;;;5089252;28;20031;-77
2021/11/06 04:42:53;;;;;;;3.65;1.63;;;3.70;99.90;;;;;;5089938;28;19907;-77
2021/11/06 04:45:19;;;;;;;;;;;3.80;99.90;;;;;;5090433;28;20349;-77
2021/11/06 04:47:44;;;;;;;3.38;1.45;;;3.80;99.90;;;;;;5088268;28;19908;-77
2021/11/06 04:50:10;;;;;;;;;;;3.80;99.90;;;;;;5089600;28;20032;-77
2021/11/06 04:52:37;;;;;;;7.95;1.75;;;3.80;99.90;;;;;;5088005;28;19912;-76
2021/11/06 04:55:07;;;;;;;11.00;5.53;;;3.80;99.90;;;;;;5089792;28;20063;-77
2021/11/06 04:57:32;;;;;;;25.92;8.95;;;3.70;99.90;;;;;;5088484;28;20111;-77
2021/11/06 04:59:58;;;;;;;;;;;3.70;99.90;;;;;;5088669;28;20115;-77
2021/11/06 05:02:24;;;;;;;20.10;8.43;;;3.70;99.90;;;;;;5089112;28;19908;-76
2021/11/06 05:04:49;;;;;;;;;;;3.70;99.90;;;;;;5087788;28;20027;-76
2021/11/06 05:07:15;;;;;;;22.02;8.32;;;3.70;99.90;;;;;;5086944;28;20333;-76
2021/11/06 05:09:43;;;;;;;13.85;6.78;;;3.60;99.90;;;;;;5087201;28;20540;-76
2021/11/06 05:12:09;;;;;;;9.65;4.43;;;3.60;99.90;;;;;;5087842;28;20027;-76
2021/11/06 05:14:35;;;;;;;7.75;3.40;;;3.60;99.90;;;;;;5087128;28;20097;-76
2021/11/06 05:17:01;;;;;;;;;;;3.60;99.90;;;;;;5089119;28;20511;-77
2021/11/06 05:19:27;;;;;;;12.25;5.32;;;3.60;99.90;;;;;;5087820;28;19915;-76
2021/11/06 05:21:53;;;;;;;;;;;3.60;99.90;;;;;;5088114;28;20400;-76
2021/11/06 05:24:18;;;;;;;7.78;3.03;;;3.60;99.90;;;;;;5088710;28;19915;-75
2021/11/06 05:26:45;;;;;;;10.55;4.55;;;3.60;99.90;;;;;;5089275;28;20070;-76
2021/11/06 05:29:11;;;;;;;9.60;3.80;;;3.70;99.90;;;;;;5088338;28;20043;-76
2021/11/06 05:31:38;;;;;;;8.65;3.85;;;3.80;99.90;;;;;;5087293;28;20115;-76
2021/11/06 05:34:04;;;;;;;9.18;4.30;;;3.80;99.90;;;;;;5088873;28;20051;-76
2021/11/06 05:36:30;;;;;;;9.30;4.03;;;3.80;99.90;;;;;;5087187;28;20020;-76
2021/11/06 05:38:56;;;;;;;;;;;3.70;99.90;;;;;;5088103;28;20027;-76
2021/11/06 05:41:22;;;;;;;13.63;5.50;;;3.60;99.90;;;;;;5088124;28;20409;-76
2021/11/06 05:43:48;;;;;;;8.52;4.15;;;3.70;99.90;;;;;;5089239;28;20091;-76
2021/11/06 05:46:13;;;;;;;;;;;3.70;99.90;;;;;;5089573;28;20528;-75
2021/11/06 05:48:39;;;;;;;15.68;7.20;;;3.70;99.90;;;;;;5087918;28;19904;-76
2021/11/06 05:51:04;;;;;;;;;;;3.70;99.90;;;;;;5088596;28;20036;-76
2021/11/06 05:53:30;;;;;;;16.02;7.97;;;3.70;99.90;;;;;;5088285;28;19912;-76
2021/11/06 05:55:56;;;;;;;16.00;7.85;;;3.70;99.90;;;;;;5088317;28;20541;-76
2021/11/06 05:58:22;;;;;;;17.17;7.43;;;3.70;99.90;;;;;;5088560;28;20097;-77
2021/11/06 06:00:48;;;;;;;;;;;3.70;99.90;;;;;;5089513;28;20714;-77
2021/11/06 06:03:13;;;;;;;18.60;9.20;;;3.70;99.90;;;;;;5089857;28;19912;-77
2021/11/06 06:05:39;;;;;;;;;;;3.60;99.90;;;;;;5090584;28;20102;-77
2021/11/06 06:08:05;;;;;;;16.00;8.18;;;3.60;99.90;;;;;;5090627;28;19930;-76
2021/11/06 06:10:32;;;;;;;13.48;6.80;;;3.60;99.90;;;;;;5089217;28;20070;-77
2021/11/06 06:12:57;;;;;;;10.73;5.90;;;3.60;99.90;;;;;;5089335;28;20102;-77
2021/11/06 06:15:23;;;;;;;;;;;3.60;99.90;;;;;;5090432;28;20024;-77
2021/11/06 06:17:50;;;;;;;8.40;3.72;;;3.60;99.90;;;;;;5090766;28;20331;-77
2021/11/06 06:20:17;;;;;;;11.80;4.53;;;3.90;99.90;;;;;;5092147;28;20484;-77
2021/11/06 06:22:43;;;;;;;8.52;4.13;;;4.40;99.90;;;;;;5089832;28;20522;-77
2021/11/06 06:25:10;;;;;;;8.43;4.55;;;5.00;99.90;;;;;;5086445;28;20020;-77
2021/11/06 06:27:37;;;;;;;8.80;4.47;;;5.70;99.90;;;;;;5086447;28;20020;-78
2021/11/06 06:30:05;;;;;;;11.98;4.40;;;6.30;99.90;;;;;;5087220;28;20107;-77
2021/11/06 06:32:31;;;;;;;14.40;4.55;;;6.90;99.90;;;;;;5087226;28;20185;-77
2021/11/06 06:34:56;;;;;;;;;;;7.50;99.90;;;;;;5086045;28;20032;-76
2021/11/06 06:37:22;;;;;;;13.70;3.90;;;8.10;99.90;;;;;;5086244;28;20187;-77
2021/11/06 06:39:48;;;;;;;;;;;8.60;99.90;;;;;;5085318;28;20055;-77
2021/11/06 06:42:14;;;;;;;8.13;4.18;;;8.90;99.90;;;;;;5084659;28;19915;-78
2021/11/06 06:44:39;;;;;;;;;;;9.50;99.90;;;;;;5084994;28;20449;-78
2021/11/06 06:47:05;;;;;;;7.43;3.35;;;9.70;99.90;;;;;;5086210;28;19935;-78
2021/11/06 06:49:31;;;;;;;;;;;10.10;99.90;;;;;;5085360;28;20583;-80
2021/11/06 06:51:56;;;;;;;6.70;2.83;;;10.40;98.30;;;;;;5085122;28;19950;-77
2021/11/06 06:54:23;;;;;;;;;;;10.60;98.20;;;;;;5085758;28;20048;-77
2021/11/06 06:56:49;;;;;;;8.40;3.53;;;10.60;98.40;;;;;;5084722;28;19915;-77
2021/11/06 06:59:15;;;;;;;6.55;3.28;;;10.50;98.60;;;;;;5086052;28;20071;-77
2021/11/06 07:01:41;;;;;;;;;;;10.50;98.90;;;;;;5086472;28;20071;-77
2021/11/06 07:04:06;;;;;;;14.55;7.07;;;10.60;98.60;;;;;;5118517;28;19904;-77
2021/11/06 07:06:32;;;;;;;;;;;10.70;98.60;;;;;;5086386;28;20024;-78
2021/11/06 07:08:59;;;;;;;25.50;11.68;;;10.90;98.20;;;;;;5118147;28;19949;-77
2021/11/06 07:11:26;;;;;;;25.10;12.98;;;11.00;97.60;;;;;;5085380;28;20384;-77
2021/11/06 07:13:52;;;;;;;33.05;14.52;;;11.20;97.30;;;;;;5089722;28;20060;-78
2021/11/06 07:16:18;;;;;;;60.25;28.30;;;11.60;96.30;;;;;;5088123;28;20825;-78
2021/11/06 07:18:44;;;;;;;;;;;11.90;95.20;;;;;;5090389;28;20031;-77
2021/11/06 07:21:09;;;;;;;70.93;31.80;;;12.10;93.80;;;;;;5089581;28;19955;-76
2021/11/06 07:23:35;;;;;;;;;;;12.30;93.90;;;;;;5088283;28;20826;-79
2021/11/06 07:26:01;;;;;;;21.35;11.52;;;12.40;91.20;;;;;;5122203;27;19915;-79
2021/11/06 07:28:28;;;;;;;20.05;9.65;;;12.20;91.60;;;;;;5089158;28;20028;-80
2021/11/06 07:30:53;;;;;;;17.20;8.25;;;12.10;92.50;;;;;;5088450;28;20028;-80
2021/11/06 07:33:19;;;;;;;;;;;12.20;92.70;;;;;;5089936;28;20105;-79
2021/11/06 07:35:44;;;;;;;13.27;5.32;;;12.50;91.10;;;;;;5088340;28;19908;-77
2021/11/06 07:38:10;;;;;;;;;;;12.80;91.00;;;;;;5088314;28;20516;-76
2021/11/06 07:40:36;;;;;;;12.65;4.35;;;13.10;88.10;;;;;;5089670;28;20379;-77
2021/11/06 07:43:03;;;;;;;;;;;13.50;86.50;;;;;;5088140;28;20460;-78
2021/11/06 07:45:28;;;;;;;4.43;2.22;;;13.80;81.60;;;;;;5089093;28;19907;-78
2021/11/06 07:47:54;;;;;;;;;;;13.80;77.90;;;;;;5089762;28;20036;-78
2021/11/06 07:50:20;;;;;;;8.20;3.60;;;13.80;75.00;;;;;;5087898;28;19904;-78
2021/11/06 07:52:46;;;;;;;6.25;3.53;;;13.80;74.50;;;;;;5088339;28;20035;-78
2021/11/06 07:55:12;;;;;;;14.50;4.07;;;13.90;74.10;;;;;;5089125;28;20054;-77
2021/11/06 07:57:38;;;;;;;8.75;4.05;;;14.00;73.10;;;;;;5088764;28;20027;-78
2021/11/06 08:00:05;;;;;;;;;;;14.30;72.80;;;;;;5089524;28;20115;-78
2021/11/06 08:02:31;;;;;;;7.75;4.40;;;14.70;70.20;;;;;;5087686;28;19923;-79
2021/11/06 08:04:56;;;;;;;6.93;4.07;;;15.00;69.80;;;;;;5087284;28;20028;-79
2021/11/06 08:07:22;;;;;;;7.53;4.78;;;15.30;68.40;;;;;;5088095;28;20024;-78
2021/11/06 08:09:48;;;;;;;12.73;4.65;;;15.40;67.60;;;;;;5087362;28;20024;-78
2021/11/06 08:12:13;;;;;;;;;;;15.40;67.10;;;;;;5087524;28;20028;-79
2021/11/06 08:14:39;;;;;;;12.27;7.07;;;15.40;66.40;;;;;;5087049;28;20390;-79
2021/11/06 08:17:04;;;;;;;13.77;8.52;;;15.50;66.10;;;;;;5088641;28;20028;-77
2021/11/06 08:19:30;;;;;;;13.90;7.15;;;15.90;65.80;;;;;;5088677;28;20032;-78
2021/11/06 08:21:56;;;;;;;9.30;5.90;;;16.20;65.00;;;;;;5087924;28;20024;-79
2021/11/06 08:24:22;;;;;;;15.70;6.18;;;16.60;63.90;;;;;;5086903;28;20036;-79
2021/11/06 08:26:49;;;;;;;7.45;4.70;;;16.80;62.80;;;;;;5087111;28;20020;-78
2021/11/06 08:29:15;;;;;;;15.65;5.13;;;17.20;61.70;;;;;;5087178;28;20044;-76
2021/11/06 08:31:41;;;;;;;8.93;5.20;;;17.40;61.20;;;;;;5086984;28;20024;-78
2021/11/06 08:34:07;;;;;;;11.25;4.10;;;17.70;61.10;;;;;;5087113;28;20036;-79
2021/11/06 08:36:33;;;;;;;8.77;4.68;;;18.10;59.40;;;;;;5086797;28;20024;-78
2021/11/06 08:38:59;;;;;;;7.00;3.92;;;18.20;58.40;;;;;;5087558;28;20515;-78
2021/11/06 08:41:25;;;;;;;9.10;4.18;;;18.40;57.70;;;;;;5086749;28;20030;-78
2021/11/06 08:43:51;;;;;;;7.65;4.20;;;18.30;57.10;;;;;;5087789;28;20024;-79
2021/11/06 08:46:16;;;;;;;7.93;3.67;;;18.60;56.80;;;;;;5086793;28;20495;-78
2021/11/06 08:48:42;;;;;;;7.68;3.42;;;18.90;54.60;;;;;;5085835;28;20024;-79
2021/11/06 08:51:08;;;;;;;4.72;3.00;;;18.90;53.50;;;;;;5088174;28;20032;-78
2021/11/06 08:53:34;;;;;;;5.85;2.95;;;19.00;53.20;;;;;;5085838;28;20043;-79
2021/11/06 08:56:00;;;;;;;8.77;2.35;;;19.10;52.80;;;;;;5086651;28;20028;-78
2021/11/06 08:58:26;;;;;;;3.97;2.30;;;19.20;52.00;;;;;;5087286;28;20048;-78
2021/11/06 09:00:52;;;;;;;6.75;2.78;;;19.40;50.60;;;;;;5087417;28;20515;-79
2021/11/06 09:03:23;;;;;;;4.15;2.10;;;19.50;50.20;;;;;;5087382;28;20032;-78
2021/11/06 09:05:51;;;;;;;2.85;2.00;;;19.50;50.60;;;;;;5086424;28;20519;-78
2021/11/06 09:08:30;;;;;;;4.07;2.08;;;19.50;51.40;;;;;;5087264;28;20514;-79
2021/11/06 09:10:59;;;;;;;3.22;2.05;;;19.30;50.40;;;;;;5085958;28;20031;-78
2021/11/06 09:13:25;;;;;;;5.43;2.25;;;18.90;51.60;;;;;;5086771;28;20044;-79
2021/11/06 09:15:51;;;;;;;5.93;2.85;;;18.10;52.40;;;;;;5087668;28;20035;-77
2021/11/06 09:18:16;;;;;;;7.80;2.80;;;17.60;53.60;;;;;;5087305;28;20569;-78
2021/11/06 09:20:42;;;;;;;8.23;2.80;;;17.00;54.30;;;;;;5087806;28;20077;-77
2021/11/06 09:23:08;;;;;;;7.05;2.83;;;16.60;55.60;;;;;;5085721;28;20020;-78
2021/11/06 09:25:34;;;;;;;6.05;2.72;;;16.30;54.80;;;;;;5085680;28;20496;-77
2021/11/06 09:28:00;;;;;;;7.07;3.22;;;15.90;55.90;;;;;;5086151;28;20548;-76
2021/11/06 09:30:25;;;;;;;6.25;3.42;;;15.70;56.40;;;;;;5085879;28;20040;-78
2021/11/06 09:32:51;;;;;;;5.70;3.35;;;15.30;58.40;;;;;;5085618;28;20258;-77
2021/11/06 09:35:17;;;;;;;6.28;2.72;;;14.90;59.10;;;;;;5086394;28;20055;-78
2021/11/06 09:37:43;;;;;;;3.40;2.08;;;14.70;60.10;;;;;;5085435;28;20039;-79
2021/11/06 09:40:09;;;;;;;;;;;14.60;59.30;;;;;;5085969;28;20424;-77
2021/11/06 09:42:36;;;;;;;7.03;3.03;;;14.50;60.90;;;;;;5085825;28;20286;-78
2021/11/06 09:45:02;;;;;;;12.68;2.67;;;14.20;61.40;;;;;;5086740;28;20042;-78
2021/11/06 09:47:28;;;;;;;8.88;3.53;;;13.90;62.30;;;;;;5085398;28;20051;-79
2021/11/06 09:49:54;;;;;;;;;;;13.80;63.20;;;;;;5087572;28;20063;-77
2021/11/06 09:52:20;;;;;;;6.65;2.10;;;13.60;62.30;;;;;;5085002;28;19915;-79
2021/11/06 09:54:46;;;;;;;;;;;13.40;64.00;;;;;;5086935;28;20043;-77
2021/11/06 09:57:12;;;;;;;5.05;2.17;;;13.40;65.10;;;;;;5086686;28;19908;-79
2021/11/06 09:59:38;;;;;;;;;;;13.30;65.80;;;;;;5085223;28;20016;-77
2021/11/06 10:02:05;;;;;;;10.77;2.40;;;13.30;67.50;;;;;;5085408;28;19961;-79
2021/11/06 10:04:31;;;;;;;3.28;1.92;;;13.20;67.60;;;;;;5085087;28;20036;-77
2021/11/06 10:07:18;;;;;;;5.20;1.92;;;13.10;67.00;;;;;;5084854;28;20024;-78
2021/11/06 10:09:58;;;;;;;3.45;1.95;;;13.10;67.30;;;;;;5086723;28;20059;-78
2021/11/06 10:12:24;;;;;;;4.47;2.03;;;13.10;67.40;;;;;;5086243;28;20380;-77
2021/11/06 10:15:02;;;;;;;;;;;13.00;67.50;;;;;;5085534;28;20047;-78
2021/11/06 10:17:32;;;;;;;6.32;3.05;;;12.90;68.30;;;;;;5085408;28;19908;-77
2021/11/06 10:19:58;;;;;;;4.57;2.80;;;12.90;69.20;;;;;;5084040;28;20049;-78
2021/11/06 10:22:27;;;;;;;;;;;12.90;69.70;;;;;;5085094;28;20024;-78
2021/11/06 10:24:57;;;;;;;7.60;2.55;;;12.80;68.10;;;;;;5086257;28;19907;-78
2021/11/06 10:27:26;;;;;;;5.15;3.47;;;12.60;70.10;;;;;;5086643;28;20016;-77
2021/11/06 10:30:09;;;;;;;10.70;3.22;;;12.70;71.60;;;;;;5085205;28;20525;-77
2021/11/06 10:32:42;;;;;;;4.70;2.88;;;12.70;71.60;;;;;;5084659;28;20403;-75
2021/11/06 10:35:18;;;;;;;7.28;2.95;;;12.80;71.40;;;;;;5086243;28;20028;-77
2021/11/06 10:37:46;;;;;;;5.03;2.45;;;12.70;71.30;;;;;;5084658;28;20085;-76
2021/11/06 10:40:13;;;;;;;5.45;2.60;;;12.80;70.90;;;;;;5086564;28;20523;-76
2021/11/06 10:42:54;;;;;;;5.22;2.70;;;12.70;71.00;;;;;;5084962;28;20123;-75
2021/11/06 10:45:23;;;;;;;5.88;2.65;;;12.70;70.70;;;;;;5085790;28;20081;-77
2021/11/06 10:48:03;;;;;;;6.07;3.00;;;12.70;71.60;;;;;;5088899;28;20024;-77
2021/11/06 10:50:49;;;;;;;5.35;2.50;;;12.70;71.60;;;;;;5089181;28;20036;-78
2021/11/06 10:53:34;;;;;;;3.80;2.28;;;12.80;72.70;;;;;;5089286;28;20032;-75
2021/11/06 10:56:04;;;;;;;5.35;2.80;;;12.70;71.40;;;;;;5088667;28;20411;-76
2021/11/06 10:58:35;;;;;;;5.10;2.92;;;12.70;72.60;;;;;;5089053;28;20395;-78
2021/11/06 11:01:13;;;;;;;5.25;2.85;;;12.70;73.30;;;;;;5088864;28;20032;-76
2021/11/06 11:03:44;;;;;;;5.78;3.35;;;12.70;72.70;;;;;;5089346;28;20446;-76
2021/11/06 11:06:19;;;;;;;4.47;3.08;;;12.60;71.60;;;;;;5088477;28;20028;-76
2021/11/06 11:08:50;;;;;;;7.03;2.97;;;12.60;73.60;;;;;;5088567;28;20031;-75
2021/11/06 11:11:19;;;;;;;4.22;2.53;;;12.60;72.70;;;;;;5088845;28;20028;-78
2021/11/06 11:13:56;;;;;;;4.78;2.42;;;12.50;73.70;;;;;;5088017;28;20098;-76
2021/11/06 11:16:23;;;;;;;3.95;2.30;;;12.50;74.90;;;;;;5088422;28;20506;-78
2021/11/06 11:18:51;;;;;;;3.67;1.90;;;12.50;75.10;;;;;;5090298;28;20036;-77
2021/11/06 11:21:17;;;;;;;6.97;2.88;;;12.40;75.50;;;;;;5089372;28;20826;-77
2021/11/06 11:23:52;;;;;;;;;;;12.50;74.80;;;;;;5090580;28;20147;-78
2021/11/06 11:26:25;;;;;;;3.75;2.10;;;12.40;75.20;;;;;;5088214;28;19908;-77
2021/11/06 11:28:51;;;;;;;5.63;2.67;;;12.50;76.00;;;;;;5088732;28;20098;-78
2021/11/06 11:31:18;;;;;;;4.63;2.38;;;12.50;75.40;;;;;;5088901;28;20372;-75
2021/11/06 11:33:45;;;;;;;5.40;2.33;;;12.50;74.50;;;;;;5087619;28;20036;-77
2021/11/06 11:36:14;;;;;;;6.75;2.75;;;12.40;75.20;;;;;;5087366;28;20514;-78
2021/11/06 11:38:41;;;;;;;4.65;2.60;;;12.40;75.30;;;;;;5088149;28;20036;-78
2021/11/06 11:41:46;;;;;;;7.60;2.50;;;12.40;74.70;;;;;;5087978;28;20028;-76
2021/11/06 11:44:21;;;;;;;3.67;2.17;;;12.30;75.90;;;;;;5087862;28;20032;-78
2021/11/06 11:47:01;;;;;;;3.45;1.98;;;12.30;76.00;;;;;;5088206;28;20337;-77
2021/11/06 11:49:35;;;;;;;5.53;2.05;;;12.30;74.90;;;;;;5087619;28;20024;-80
2021/11/06 11:52:21;;;;;;;6.30;2.35;;;12.30;75.10;;;;;;5087497;28;20028;-80
2021/11/06 11:54:56;;;;;;;4.65;2.10;;;12.30;76.10;;;;;;5087153;28;20032;-76
2021/11/06 11:57:22;;;;;;;6.47;2.85;;;12.30;75.90;;;;;;5088069;28;20028;-80
2021/11/06 11:59:47;;;;;;;;;;;12.30;76.30;;;;;;5088814;28;20115;-80
2021/11/06 12:02:30;;;;;;;4.93;2.80;;;12.30;76.90;;;;;;5088642;28;19949;-75
2021/11/06 12:05:15;;;;;;;5.20;3.00;;;12.30;76.40;;;;;;5086719;28;20020;-80
2021/11/06 12:07:43;;;;;;;5.13;2.65;;;12.20;77.40;;;;;;5087703;28;20028;-80
2021/11/06 12:10:27;;;;;;;4.65;2.50;;;12.30;78.00;;;;;;5087201;28;20049;-79
2021/11/06 12:12:53;;;;;;;3.97;2.45;;;12.30;77.70;;;;;;5087003;28;20139;-79
2021/11/06 12:15:20;;;;;;;4.60;2.65;;;12.20;78.20;;;;;;5087071;28;20020;-77
2021/11/06 12:17:46;;;;;;;4.57;2.53;;;12.30;78.50;;;;;;5087501;28;20087;-78
2021/11/06 12:20:31;;;;;;;4.45;2.63;;;12.30;77.70;;;;;;5086762;28;20234;-77
2021/11/06 12:22:57;;;;;;;3.60;2.20;;;12.30;77.60;;;;;;5087122;28;20098;-77
2021/11/06 12:25:22;;;;;;;;;;;12.30;75.80;;;;;;5087411;28;20024;-77
2021/11/06 12:27:54;;;;;;;5.97;2.90;;;12.20;76.50;;;;;;5086892;28;19908;-79
2021/11/06 12:30:28;;;;;;;5.40;2.30;;;12.20;78.30;;;;;;5087403;28;20024;-77
2021/11/06 12:32:55;;;;;;;4.47;2.63;;;12.20;81.00;;;;;;5087112;28;20084;-77
2021/11/06 12:35:27;;;;;;;3.40;1.90;;;12.30;80.30;;;;;;5087836;28;20111;-78
2021/11/06 12:38:13;;;;;;;5.57;2.20;;;12.40;79.60;;;;;;5087039;28;20040;-78
2021/11/06 12:40:55;;;;;;;5.90;3.15;;;12.40;78.90;;;;;;5087927;28;20039;-79
2021/11/06 12:43:29;;;;;;;5.05;2.85;;;12.50;77.80;;;;;;5054115;28;20036;-79
2021/11/06 12:46:00;;;;;;;4.47;2.53;;;12.40;78.10;;;;;;5087424;28;20577;-77
2021/11/06 12:48:41;;;;;;;4.82;2.47;;;12.50;78.40;;;;;;5086644;28;20024;-77
2021/11/06 12:51:13;;;;;;;5.18;2.45;;;12.60;77.90;;;;;;5088001;28;20089;-78
2021/11/06 12:53:47;;;;;;;4.82;2.20;;;12.70;77.10;;;;;;5086179;28;20130;-76
2021/11/06 12:56:23;;;;;;;5.07;2.45;;;12.70;78.30;;;;;;5088366;28;20369;-77
2021/11/06 12:59:10;;;;;;;4.90;2.92;;;12.70;78.80;;;;;;5087032;28;20511;-77
2021/11/06 13:01:40;;;;;;;5.57;2.83;;;12.80;78.70;;;;;;5086444;28;20028;-77
2021/11/06 13:04:13;;;;;;;5.28;3.38;;;12.70;77.70;;;;;;5086220;28;20038;-77
2021/11/06 13:06:39;;;;;;;7.60;2.80;;;12.80;78.10;;;;;;5086562;28;20032;-77
2021/11/06 13:09:09;;;;;;;9.65;2.95;;;12.80;78.80;;;;;;5087561;28;20399;-76
2021/11/06 13:12:06;;;;;;;4.53;2.75;;;12.80;78.80;;;;;;5086354;28;20123;-75